Time;durP1;ratioP1;P1;durP2;ratioP2;P2;SDS_P1;SDS_P2;PMS_P1;PMS_P2;Temp;Humidity;BMP_temperature;BMP_pressure;BME280_temperature;BME280_humidity;BME280_pressure;Samples;Min_cycle;Max_cycle;Signal;HPM_P1;HPM_P2
2023/12/20 06:01:04;;;;;;;;;;;;;;;1.52;100.00;99832.64;107742;1273;22542;-47
2023/12/20 06:03:31;;;;;;;;;;;;;;;1.58;100.00;99836.76;110069;1266;22553;-53
2023/12/20 06:06:00;;;;;;;;;;;;;;;1.66;100.00;99837.67;109171;1270;22542;-48
2023/12/20 06:08:40;;;;;;;;;;;;;;;1.73;100.00;99834.92;109854;1270;23259;-46
2023/12/20 06:11:07;;;;;;;;;;;;;;;1.76;100.00;99837.79;109959;1266;22479;-52
2023/12/20 06:13:33;;;;;;;;;;;;;;;1.80;100.00;99834.97;109917;1269;22472;-47
2023/12/20 06:16:00;;;;;;;;;;;;;;;1.83;100.00;99842.09;109923;1275;22477;-48
2023/12/20 06:18:27;;;;;;;;;;;;;;;1.87;100.00;99841.70;109964;1270;23213;-53
2023/12/20 06:20:54;;;;;;;;;;;;;;;1.90;100.00;99833.70;109808;1269;22643;-48
2023/12/20 06:23:21;;;;;;;;;;;;;;;1.95;100.00;99838.11;109875;1270;23341;-53
2023/12/20 06:25:48;;;;;;;;;;;;;;;1.99;100.00;99842.03;109201;1265;22535;-53
2023/12/20 06:28:16;;;;;;;;;;;;;;;2.03;100.00;99849.18;109668;1272;23327;-54
2023/12/20 06:30:43;;;;;;;;;;;;;;;2.09;100.00;99846.79;109748;1271;22475;-48
2023/12/20 06:33:13;;;;;;;;;;;;;;;2.20;100.00;99847.22;109225;1275;23076;-53
2023/12/20 06:35:43;;;;;;;;;;;;;;;2.28;100.00;99844.17;109743;1267;23211;-47
2023/12/20 06:38:51;;;;;;;;;;;;;;;2.37;100.00;99850.44;109610;1276;23316;-54
2023/12/20 06:41:24;;;;;;;;;;;;;;;2.47;100.00;99841.73;109686;1271;22867;-48
2023/12/20 06:43:57;;;;;;;;;;;;;;;2.54;100.00;99845.36;109019;1274;23240;-49
2023/12/20 06:46:25;;;;;;;;;;;;;;;2.60;100.00;99851.20;108422;1272;23282;-56
2023/12/20 06:48:57;;;;;;;;;;;;;;;2.61;100.00;99853.63;109701;1270;23677;-54
2023/12/20 06:51:25;;;;;;;;;;;;;;;2.58;100.00;99855.61;109389;1272;22647;-51
2023/12/20 06:53:53;;;;;;;;;;;;;;;2.56;100.00;99848.00;109037;1273;25853;-54
2023/12/20 06:56:45;;;;;;;;;;;;;;;2.54;100.00;99843.63;109420;1273;22996;-46
2023/12/20 06:59:40;;;;;;;;;;;;;;;2.49;100.00;99830.77;109290;1273;22517;-47
2023/12/20 07:02:20;;;;;;;;;;;;;;;2.46;100.00;99824.49;109726;1272;22561;-56
2023/12/20 07:04:55;;;;;;;;;;;;;;;2.42;100.00;99824.57;109065;1276;22901;-57
2023/12/20 07:07:33;;;;;;;;;;;;;;;2.39;100.00;99837.23;109572;1264;22507;-49
2023/12/20 07:10:01;;;;;;;;;;;;;;;2.38;100.00;99847.20;109198;1273;22980;-45
2023/12/20 07:12:28;;;;;;;;;;;;;;;2.40;100.00;99837.25;109083;1279;22734;-48
2023/12/20 07:14:56;;;;;;;;;;;;;;;2.42;100.00;99836.95;109872;1272;22486;-45
2023/12/20 07:17:43;;;;;;;;;;;;;;;2.45;100.00;99839.11;109243;1273;23550;-48
2023/12/20 07:20:39;;;;;;;;;;;;;;;2.48;100.00;99842.61;108923;1273;22647;-48
2023/12/20 07:23:21;;;;;;;;;;;;;;;2.52;100.00;99843.59;109003;1273;22555;-47
2023/12/20 07:25:53;;;;;;;;;;;;;;;2.55;100.00;99845.39;109486;1277;22462;-55
2023/12/20 07:28:20;;;;;;;;;;;;;;;2.57;100.00;99844.58;109271;1271;22521;-56
2023/12/20 07:30:47;;;;;;;;;;;;;;;2.61;100.00;99840.19;109824;1260;22527;-53
2023/12/20 07:33:15;;;;;;;;;;;;;;;2.67;100.00;99837.73;108872;1267;22501;-48
2023/12/20 07:35:53;;;;;;;;;;;;;;;2.73;100.00;99838.08;108910;1275;22549;-49
2023/12/20 07:38:32;;;;;;;;;;;;;;;2.78;100.00;99834.91;109599;1261;22594;-47
2023/12/20 07:41:04;;;;;;;;;;;;;;;2.84;100.00;99831.11;108582;1280;22673;-54
2023/12/20 07:43:32;;;;;;;;;;;;;;;2.90;100.00;99834.86;109711;1273;23629;-53
2023/12/20 07:46:04;;;;;;;;;;;;;;;2.95;100.00;99830.50;109293;1273;22527;-53
2023/12/20 07:48:37;;;;;;;;;;;;;;;3.02;100.00;99828.06;108958;1275;22534;-47
2023/12/20 07:51:09;;;;;;;;;;;;;;;3.11;100.00;99835.70;109752;1272;22465;-47
2023/12/20 07:53:37;;;;;;;;;;;;;;;3.19;100.00;99832.09;109269;1273;22513;-53
2023/12/20 07:56:13;;;;;;;;;;;;;;;3.29;100.00;99841.77;109939;1272;22449;-46
2023/12/20 07:58:40;;;;;;;;;;;;;;;3.37;100.00;99840.75;109947;1270;22435;-47
2023/12/20 08:01:18;;;;;;;;;;;;;;;3.47;100.00;99831.48;109510;1272;22620;-46
2023/12/20 08:03:46;;;;;;;;;;;;;;;3.58;100.00;99826.88;108159;1278;22598;-47
2023/12/20 08:06:13;;;;;;;;;;;;;;;3.67;100.00;99811.88;108759;1272;24199;-55
2023/12/20 08:08:39;;;;;;;;;;;;;;;3.75;100.00;99816.19;108299;1272;22517;-46
2023/12/20 08:11:11;;;;;;;;;;;;;;;3.81;100.00;99824.39;108226;1275;22508;-52
2023/12/20 08:13:42;;;;;;;;;;;;;;;3.85;100.00;99813.10;108972;1271;24270;-47
2023/12/20 08:16:09;;;;;;;;;;;;;;;3.89;100.00;99810.08;108807;1272;22562;-47
2023/12/20 08:18:40;;;;;;;;;;;;;;;3.92;100.00;99802.19;108771;1273;22538;-52
2023/12/20 08:21:08;;;;;;;;;;;;;;;3.98;100.00;99799.55;109628;1274;23309;-52
2023/12/20 08:23:35;;;;;;;;;;;;;;;4.05;100.00;99803.45;109726;1272;22521;-46
2023/12/20 08:26:05;;;;;;;;;;;;;;;4.10;100.00;99800.96;109801;1273;23330;-46
2023/12/20 08:28:32;;;;;;;;;;;;;;;4.15;100.00;99797.09;109389;1272;22511;-47
2023/12/20 08:31:05;;;;;;;;;;;;;;;4.19;100.00;99788.36;109202;1269;25029;-54
2023/12/20 08:33:33;;;;;;;;;;;;;;;4.22;100.00;99793.42;109071;1275;22955;-49
2023/12/20 08:39:46;;;;;;;;;;;;;;;4.37;100.00;99780.55;109501;1273;22474;-47
2023/12/20 08:46:57;;;;;;;;;;;;;;;4.57;100.00;99781.73;109753;1269;22898;-52
2023/12/20 08:50:43;;;;;;;;;;;;;;;4.65;100.00;99781.70;109759;1272;22467;-52
2023/12/20 08:53:29;;;;;;;;;;;;;;;4.70;100.00;99774.52;109641;1271;23025;-49
2023/12/20 09:00:13;;;;;;;;;;;;;;;4.77;100.00;99756.31;108708;1279;22509;-46
2023/12/20 09:04:01;;;;;;;;;;;;;;;4.82;100.00;99746.53;109620;1272;22513;-52
2023/12/20 09:07:31;;;;;;;;;;;;;;;4.93;100.00;99733.02;108575;1275;22642;-54
2023/12/20 09:10:44;;;;;;;;;;;;;;;5.08;100.00;99726.48;109550;1273;22593;-47
2023/12/20 09:13:28;;;;;;;;;;;;;;;5.17;100.00;99724.54;108776;1274;23942;-54
2023/12/20 09:15:55;;;;;;;;;;;;;;;5.19;100.00;99714.70;109714;1275;22468;-54
2023/12/20 09:18:32;;;;;;;;;;;;;;;5.22;100.00;99718.90;108680;1261;22638;-55
2023/12/20 09:21:06;;;;;;;;;;;;;;;5.30;100.00;99716.91;109209;1275;22484;-52
2023/12/20 09:23:33;;;;;;;;;;;;;;;5.37;100.00;99707.48;109353;1266;22963;-48
2023/12/20 09:26:06;;;;;;;;;;;;;;;5.45;100.00;99698.92;109310;1272;23245;-49
2023/12/20 09:28:36;;;;;;;;;;;;;;;5.53;100.00;99701.61;109404;1272;23024;-48
2023/12/20 09:31:04;;;;;;;;;;;;;;;5.59;100.00;99707.39;109632;1272;23152;-47
2023/12/20 09:33:31;;;;;;;;;;;;;;;5.66;100.00;99711.80;109822;1268;22439;-46
2023/12/20 09:35:58;;;;;;;;;;;;;;;5.75;100.00;99707.73;109747;1262;23409;-45
2023/12/20 09:38:28;;;;;;;;;;;;;;;5.83;100.00;99706.43;108369;1272;22921;-54
2023/12/20 09:40:56;;;;;;;;;;;;;;;5.91;100.00;99708.23;109081;1275;23928;-46
2023/12/20 09:43:24;;;;;;;;;;;;;;;5.98;100.00;99698.46;108788;1269;22522;-52
2023/12/20 09:45:57;;;;;;;;;;;;;;;6.07;100.00;99699.75;109359;1276;23347;-46
2023/12/20 09:48:24;;;;;;;;;;;;;;;6.14;100.00;99696.52;109847;1272;23260;-53
2023/12/20 09:50:51;;;;;;;;;;;;;;;6.20;100.00;99694.66;109106;1272;23322;-54
2023/12/20 09:53:20;;;;;;;;;;;;;;;6.27;100.00;99694.19;109044;1272;22629;-47
2023/12/20 09:55:46;;;;;;;;;;;;;;;6.37;100.00;99691.52;109690;1269;22614;-47
2023/12/20 09:58:13;;;;;;;;;;;;;;;6.51;100.00;99685.37;109605;1272;22721;-46
2023/12/20 10:00:40;;;;;;;;;;;;;;;6.67;100.00;99682.69;109564;1272;22550;-45
2023/12/20 10:03:13;;;;;;;;;;;;;;;6.88;100.00;99675.70;109613;1275;22830;-54
2023/12/20 10:05:46;;;;;;;;;;;;;;;7.17;100.00;99674.96;109762;1279;23024;-46
2023/12/20 10:08:26;;;;;;;;;;;;;;;7.54;100.00;99665.36;109785;1275;22563;-48
2023/12/20 10:10:53;;;;;;;;;;;;;;;8.06;98.97;99661.43;109824;1273;22462;-48
2023/12/20 10:13:20;;;;;;;;;;;;;;;8.58;94.42;99664.89;109607;1272;22548;-47
2023/12/20 10:15:47;;;;;;;;;;;;;;;8.94;90.12;99660.28;109711;1277;22467;-55
2023/12/20 10:18:14;;;;;;;;;;;;;;;9.18;87.04;99654.62;109585;1276;23409;-47
2023/12/20 10:20:42;;;;;;;;;;;;;;;9.38;85.97;99647.74;109564;1273;23031;-55
2023/12/20 10:23:10;;;;;;;;;;;;;;;9.55;83.88;99644.84;109829;1272;23520;-47
2023/12/20 10:25:36;;;;;;;;;;;;;;;9.69;82.42;99639.02;109640;1275;23106;-48
2023/12/20 10:28:17;;;;;;;;;;;;;;;9.85;81.56;99634.54;109348;1272;22546;-47
2023/12/20 10:30:57;;;;;;;;;;;;;;;10.00;80.62;99629.72;108513;1276;22537;-47
2023/12/20 10:33:25;;;;;;;;;;;;;;;10.08;79.29;99618.33;109709;1275;23337;-55
2023/12/20 10:35:59;;;;;;;;;;;;;;;10.15;79.03;99612.69;109866;1270;22686;-47
2023/12/20 10:38:26;;;;;;;;;;;;;;;10.24;78.20;99609.66;109724;1272;191961;-49
2023/12/20 10:40:54;;;;;;;;;;;;;;;10.27;78.49;99606.87;109901;1272;23244;-46
2023/12/20 10:43:21;;;;;;;;;;;;;;;10.30;79.49;99604.38;109824;1279;22522;-54
2023/12/20 10:45:47;;;;;;;;;;;;;;;10.40;78.95;99601.84;109627;1271;22647;-46
2023/12/20 10:48:14;;;;;;;;;;;;;;;10.55;78.62;99599.77;110007;1270;22436;-53
2023/12/20 10:50:41;;;;;;;;;;;;;;;10.70;78.34;99596.46;110023;1268;22936;-54
2023/12/20 10:53:08;;;;;;;;;;;;;;;10.82;78.01;99587.42;110036;1272;22461;-46
2023/12/20 10:55:35;;;;;;;;;;;;;;;10.94;77.58;99584.65;110010;1272;23310;-46
2023/12/20 10:58:11;;;;;;;;;;;;;;;11.11;77.18;99590.02;109702;1259;22843;-46
2023/12/20 11:00:41;;;;;;;;;;;;;;;11.21;76.99;99589.02;108652;1272;24237;-47
2023/12/20 11:03:08;;;;;;;;;;;;;;;11.37;77.60;99581.45;109721;1270;22542;-46
2023/12/20 11:05:38;;;;;;;;;;;;;;;11.62;75.22;99579.16;109789;1272;22496;-46
2023/12/20 11:08:24;;;;;;;;;;;;;;;11.62;73.41;99579.86;109790;1273;22520;-45
2023/12/20 11:10:56;;;;;;;;;;;;;;;11.41;74.18;99572.83;109123;1275;23234;-54
2023/12/20 11:13:26;;;;;;;;;;;;;;;11.26;75.45;99567.48;109754;1274;22559;-55
2023/12/20 11:15:53;;;;;;;;;;;;;;;11.17;76.73;99566.90;109831;1279;22467;-53
2023/12/20 11:18:20;;;;;;;;;;;;;;;11.11;77.82;99569.25;109708;1280;22434;-54
2023/12/20 11:20:48;;;;;;;;;;;;;;;11.09;77.55;99567.89;109595;1275;22513;-55
2023/12/20 11:23:18;;;;;;;;;;;;;;;11.07;77.38;99568.25;109497;1280;23026;-54
2023/12/20 11:25:48;;;;;;;;;;;;;;;11.05;77.41;99568.29;109544;1272;24951;-46
2023/12/20 11:28:15;;;;;;;;;;;;;;;11.03;78.48;99566.40;109873;1262;22436;-47
2023/12/20 11:30:51;;;;;;;;;;;;;;;11.11;78.50;99557.38;109884;1262;23199;-47
2023/12/20 11:33:24;;;;;;;;;;;;;;;11.28;78.49;99555.22;109873;1270;22917;-46
2023/12/20 11:35:59;;;;;;;;;;;;;;;11.52;78.04;99554.86;109974;1269;23527;-46
2023/12/20 11:38:26;;;;;;;;;;;;;;;11.82;77.69;99552.63;109970;1269;22543;-47
2023/12/20 11:40:55;;;;;;;;;;;;;;;12.10;76.60;99550.07;109978;1272;24447;-46
2023/12/20 11:43:35;;;;;;;;;;;;;;;12.30;75.86;99553.20;109509;1272;22595;-47
2023/12/20 11:46:09;;;;;;;;;;;;;;;12.55;74.98;99543.63;108514;1270;22754;-47
2023/12/20 11:48:37;;;;;;;;;;;;;;;12.77;74.17;99545.45;108699;1275;22793;-47
2023/12/20 11:51:11;;;;;;;;;;;;;;;12.84;73.43;99540.77;109245;1261;24055;-48
2023/12/20 11:53:38;;;;;;;;;;;;;;;12.76;73.02;99531.81;110068;1273;23156;-46
2023/12/20 11:56:06;;;;;;;;;;;;;;;12.71;73.71;99527.91;109354;1272;23373;-48
2023/12/20 11:58:35;;;;;;;;;;;;;;;12.73;73.85;99523.81;109871;1272;22512;-55
2023/12/20 12:01:02;;;;;;;;;;;;;;;12.68;73.56;99516.25;110003;1273;22496;-55
2023/12/20 12:03:30;;;;;;;;;;;;;;;12.58;73.87;99519.60;109580;1279;23319;-46
2023/12/20 12:05:57;;;;;;;;;;;;;;;12.45;74.13;99508.32;109741;1261;22576;-47
2023/12/20 12:08:23;;;;;;;;;;;;;;;12.31;75.15;99504.23;109816;1272;23367;-47
2023/12/20 12:10:50;;;;;;;;;;;;;;;12.33;75.56;99503.50;109955;1270;23738;-45
2023/12/20 12:13:17;;;;;;;;;;;;;;;12.41;75.65;99501.92;109895;1279;22459;-47
2023/12/20 12:15:44;;;;;;;;;;;;;;;12.44;75.94;99499.08;109078;1268;22951;-47
2023/12/20 12:18:11;;;;;;;;;;;;;;;12.41;76.03;99500.70;109923;1275;22452;-46
2023/12/20 12:20:38;;;;;;;;;;;;;;;12.38;75.97;99493.60;109532;1272;23167;-54
2023/12/20 12:23:06;;;;;;;;;;;;;;;12.34;75.90;99494.39;108675;1275;22528;-47
2023/12/20 12:25:37;;;;;;;;;;;;;;;12.28;75.95;99483.66;109271;1272;22648;-48
2023/12/20 12:28:10;;;;;;;;;;;;;;;12.21;75.80;99484.67;108961;1277;23865;-54
2023/12/20 12:30:39;;;;;;;;;;;;;;;12.10;76.17;99484.35;109224;1272;23397;-53
2023/12/20 12:33:19;;;;;;;;;;;;;;;12.11;76.76;99482.58;109961;1279;22436;-53
2023/12/20 12:35:47;;;;;;;;;;;;;;;12.25;76.90;99481.61;109902;1265;22487;-54
2023/12/20 12:38:15;;;;;;;;;;;;;;;12.41;76.61;99473.95;110056;1278;22438;-54
2023/12/20 12:40:43;;;;;;;;;;;;;;;12.52;76.45;99470.05;107862;1272;22518;-53
2023/12/20 12:43:10;;;;;;;;;;;;;;;12.56;76.11;99468.20;108870;1279;23221;-53
2023/12/20 12:45:37;;;;;;;;;;;;;;;12.48;76.03;99461.02;109168;1279;22559;-46
2023/12/20 12:48:04;;;;;;;;;;;;;;;12.35;76.59;99458.52;109773;1273;22505;-54
2023/12/20 12:50:31;;;;;;;;;;;;;;;12.19;77.50;99458.14;110008;1269;22446;-53
2023/12/20 12:52:58;;;;;;;;;;;;;;;11.97;78.55;99458.91;110041;1270;22590;-52
2023/12/20 12:55:24;;;;;;;;;;;;;;;11.75;79.62;99455.98;109676;1273;22587;-54
2023/12/20 12:57:53;;;;;;;;;;;;;;;11.67;80.47;99453.66;109877;1275;22456;-46
2023/12/20 13:00:19;;;;;;;;;;;;;;;11.78;80.49;99451.55;110003;1270;22476;-47
2023/12/20 13:02:47;;;;;;;;;;;;;;;11.97;80.18;99446.84;109939;1278;23398;-47
2023/12/20 13:05:13;;;;;;;;;;;;;;;12.19;79.55;99451.85;110003;1273;22435;-48
2023/12/20 13:07:41;;;;;;;;;;;;;;;12.31;79.13;99450.91;109998;1280;23023;-48
2023/12/20 13:10:07;;;;;;;;;;;;;;;12.41;79.19;99441.42;110000;1272;22477;-48
2023/12/20 13:12:34;;;;;;;;;;;;;;;12.49;78.55;99442.48;110102;1279;22451;-48
2023/12/20 13:15:03;;;;;;;;;;;;;;;12.35;78.57;99441.91;109056;1279;22514;-48
2023/12/20 13:17:30;;;;;;;;;;;;;;;11.97;79.14;99444.56;110019;1279;22426;-48
2023/12/20 13:19:59;;;;;;;;;;;;;;;11.54;80.64;99450.04;109339;1279;22510;-49
2023/12/20 13:22:26;;;;;;;;;;;;;;;11.18;81.90;99449.93;110013;1269;22820;-48
2023/12/20 13:24:53;;;;;;;;;;;;;;;10.88;83.25;99450.40;110065;1279;22417;-48
2023/12/20 13:27:20;;;;;;;;;;;;;;;10.62;84.51;99445.53;109872;1279;22499;-48
2023/12/20 13:29:46;;;;;;;;;;;;;;;10.40;85.80;99440.59;109906;1265;22446;-48
2023/12/20 13:32:13;;;;;;;;;;;;;;;10.18;86.83;99440.14;110076;1273;22481;-47
2023/12/20 13:34:40;;;;;;;;;;;;;;;9.97;88.33;99436.72;110078;1273;22958;-47
2023/12/20 13:37:07;;;;;;;;;;;;;;;9.76;89.54;99435.55;109956;1279;22446;-54
2023/12/20 13:39:34;;;;;;;;;;;;;;;9.55;90.96;99444.81;110091;1279;22448;-47
2023/12/20 13:42:01;;;;;;;;;;;;;;;9.31;92.96;99440.84;109979;1279;22540;-47
2023/12/20 13:44:28;;;;;;;;;;;;;;;9.06;95.24;99444.00;109143;1270;22495;-48
2023/12/20 13:46:55;;;;;;;;;;;;;;;8.79;97.43;99444.54;108233;1279;22517;-48
2023/12/20 13:49:25;;;;;;;;;;;;;;;8.53;99.50;99445.21;108781;1279;22590;-53
2023/12/20 13:51:54;;;;;;;;;;;;;;;8.27;100.00;99450.52;110065;1279;23301;-53
2023/12/20 13:54:22;;;;;;;;;;;;;;;8.08;100.00;99449.54;110098;1279;23229;-54
2023/12/20 13:56:48;;;;;;;;;;;;;;;7.92;100.00;99449.92;109589;1279;22633;-54
2023/12/20 13:59:34;;;;;;;;;;;;;;;7.79;100.00;99450.83;108423;1279;22557;-47
2023/12/20 14:02:03;;;;;;;;;;;;;;;7.68;100.00;99449.46;109513;1279;24318;-48
2023/12/20 14:04:31;;;;;;;;;;;;;;;7.58;100.00;99439.77;108776;1279;25299;-54
2023/12/20 14:07:10;;;;;;;;;;;;;;;7.50;100.00;99434.91;108046;1279;25299;-54
2023/12/20 14:09:37;;;;;;;;;;;;;;;7.44;100.00;99429.89;110105;1279;23095;-54
2023/12/20 14:12:03;;;;;;;;;;;;;;;7.39;100.00;99430.07;110083;1269;22436;-48
2023/12/20 14:14:30;;;;;;;;;;;;;;;7.36;100.00;99424.52;108765;1279;22512;-48
2023/12/20 14:16:57;;;;;;;;;;;;;;;7.34;100.00;99425.90;107448;1268;22622;-50
2023/12/20 14:19:24;;;;;;;;;;;;;;;7.33;100.00;99430.08;106948;1279;26608;-53
2023/12/20 14:21:50;;;;;;;;;;;;;;;7.33;100.00;99423.48;107053;1279;22506;-46
2023/12/20 14:24:17;;;;;;;;;;;;;;;7.33;100.00;99428.86;107274;1279;24181;-53
2023/12/20 14:26:44;;;;;;;;;;;;;;;7.34;100.00;99427.98;106903;1279;24239;-54
2023/12/20 14:29:11;;;;;;;;;;;;;;;7.36;100.00;99430.95;107363;1279;23518;-53
2023/12/20 14:31:38;;;;;;;;;;;;;;;7.37;100.00;99427.30;108321;1279;22518;-53
2023/12/20 14:34:06;;;;;;;;;;;;;;;7.37;100.00;99426.60;109258;1279;22637;-48
2023/12/20 14:36:34;;;;;;;;;;;;;;;7.37;100.00;99428.52;107778;1279;22525;-52
2023/12/20 14:39:02;;;;;;;;;;;;;;;7.33;100.00;99424.70;107742;1279;22506;-52
2023/12/20 14:41:29;;;;;;;;;;;;;;;7.29;100.00;99426.08;109214;1279;23011;-46
2023/12/20 14:43:59;;;;;;;;;;;;;;;7.25;100.00;99425.90;107462;1279;22523;-47
2023/12/20 14:46:26;;;;;;;;;;;;;;;7.20;100.00;99423.66;107662;1279;24200;-50
2023/12/20 14:48:53;;;;;;;;;;;;;;;7.17;100.00;99426.77;106833;1279;22501;-48
2023/12/20 14:51:20;;;;;;;;;;;;;;;7.14;100.00;99429.73;106908;1279;22532;-54
2023/12/20 14:53:47;;;;;;;;;;;;;;;7.15;100.00;99426.96;108305;1279;22501;-54
2023/12/20 14:56:14;;;;;;;;;;;;;;;7.17;100.00;99428.16;107863;1268;23862;-48
2023/12/20 14:58:41;;;;;;;;;;;;;;;7.21;100.00;99423.83;107184;1279;22515;-54
2023/12/20 15:01:08;;;;;;;;;;;;;;;7.24;100.00;99423.14;107070;1279;22509;-50
2023/12/20 15:03:35;;;;;;;;;;;;;;;7.27;100.00;99421.75;108573;1279;22514;-53
2023/12/20 15:06:02;;;;;;;;;;;;;;;7.28;100.00;99416.54;108192;1279;22483;-46
2023/12/20 15:08:30;;;;;;;;;;;;;;;7.30;100.00;99417.40;107786;1279;23890;-52
2023/12/20 15:10:57;;;;;;;;;;;;;;;7.31;100.00;99412.91;106899;1279;25317;-49
2023/12/20 15:13:24;;;;;;;;;;;;;;;7.32;100.00;99407.86;107398;1279;22518;-48
2023/12/20 15:15:51;;;;;;;;;;;;;;;7.34;100.00;99400.23;108182;1279;22683;-53
